sensor_id;sensor_type;location;lat;lon;timestamp;temperature;humidity
19039;DHT22;9652;49.014;12.052;2022-10-12T00:00:49;14.70;75.20
19039;DHT22;9652;49.014;12.052;2022-10-12T00:03:18;14.80;75.20
19039;DHT22;9652;49.014;12.052;2022-10-12T00:05:46;14.90;75.30
19039;DHT22;9652;49.014;12.052;2022-10-12T00:08:16;14.70;75.10
19039;DHT22;9652;49.014;12.052;2022-10-12T00:10:45;14.90;75.20
19039;DHT22;9652;49.014;12.052;2022-10-12T00:13:12;15.00;75.20
19039;DHT22;9652;49.014;12.052;2022-10-12T00:15:39;15.00;75.00
19039;DHT22;9652;49.014;12.052;2022-10-12T00:18:07;15.00;74.90
19039;DHT22;9652;49.014;12.052;2022-10-12T00:20:34;15.10;74.90
19039;DHT22;9652;49.014;12.052;2022-10-12T00:23:02;15.10;74.90
19039;DHT22;9652;49.014;12.052;2022-10-12T00:25:29;15.20;74.90
19039;DHT22;9652;49.014;12.052;2022-10-12T00:27:57;15.20;74.90
19039;DHT22;9652;49.014;12.052;2022-10-12T00:30:24;15.20;74.90
19039;DHT22;9652;49.014;12.052;2022-10-12T00:32:52;15.20;74.80
19039;DHT22;9652;49.014;12.052;2022-10-12T00:35:19;15.20;74.80
19039;DHT22;9652;49.014;12.052;2022-10-12T00:37:46;15.30;74.80
19039;DHT22;9652;49.014;12.052;2022-10-12T00:40:13;15.30;74.80
19039;DHT22;9652;49.014;12.052;2022-10-12T00:42:40;15.30;74.70
19039;DHT22;9652;49.014;12.052;2022-10-12T00:45:09;15.40;74.60
19039;DHT22;9652;49.014;12.052;2022-10-12T00:47:38;15.40;74.50
19039;DHT22;9652;49.014;12.052;2022-10-12T00:50:14;15.40;74.40
19039;DHT22;9652;49.014;12.052;2022-10-12T00:52:51;15.40;74.40
19039;DHT22;9652;49.014;12.052;2022-10-12T00:55:24;15.40;74.40
19039;DHT22;9652;49.014;12.052;2022-10-12T00:57:54;15.50;74.50
19039;DHT22;9652;49.014;12.052;2022-10-12T01:00:23;15.50;74.40
19039;DHT22;9652;49.014;12.052;2022-10-12T01:02:52;15.50;75.20
19039;DHT22;9652;49.014;12.052;2022-10-12T01:05:20;15.50;74.30
19039;DHT22;9652;49.014;12.052;2022-10-12T01:07:49;15.50;74.40
19039;DHT22;9652;49.014;12.052;2022-10-12T01:10:16;15.50;74.40
19039;DHT22;9652;49.014;12.052;2022-10-12T01:12:46;15.60;74.40
19039;DHT22;9652;49.014;12.052;2022-10-12T01:15:16;15.60;74.30
19039;DHT22;9652;49.014;12.052;2022-10-12T01:17:55;15.60;74.30
19039;DHT22;9652;49.014;12.052;2022-10-12T01:20:52;15.60;74.30
19039;DHT22;9652;49.014;12.052;2022-10-12T01:24:04;15.60;74.30
19039;DHT22;9652;49.014;12.052;2022-10-12T01:30:21;15.70;74.20
19039;DHT22;9652;49.014;12.052;2022-10-12T01:33:13;15.60;74.00
19039;DHT22;9652;49.014;12.052;2022-10-12T01:35:53;15.60;74.20
19039;DHT22;9652;49.014;12.052;2022-10-12T01:38:39;15.60;74.10
19039;DHT22;9652;49.014;12.052;2022-10-12T01:41:17;15.70;74.10
19039;DHT22;9652;49.014;12.052;2022-10-12T01:43:49;15.70;74.20
19039;DHT22;9652;49.014;12.052;2022-10-12T01:46:43;15.70;74.20
19039;DHT22;9652;49.014;12.052;2022-10-12T01:49:14;15.70;74.30
19039;DHT22;9652;49.014;12.052;2022-10-12T01:51:55;15.80;74.20
19039;DHT22;9652;49.014;12.052;2022-10-12T01:54:36;15.80;74.10
19039;DHT22;9652;49.014;12.052;2022-10-12T01:57:18;15.60;73.90
19039;DHT22;9652;49.014;12.052;2022-10-12T02:00:00;15.60;73.90
19039;DHT22;9652;49.014;12.052;2022-10-12T02:02:37;15.70;73.90
19039;DHT22;9652;49.014;12.052;2022-10-12T02:05:21;15.70;73.90
19039;DHT22;9652;49.014;12.052;2022-10-12T02:08:02;15.70;73.80
19039;DHT22;9652;49.014;12.052;2022-10-12T02:10:39;15.70;73.80
19039;DHT22;9652;49.014;12.052;2022-10-12T02:13:14;15.70;73.80
19039;DHT22;9652;49.014;12.052;2022-10-12T02:15:47;15.70;73.90
19039;DHT22;9652;49.014;12.052;2022-10-12T02:18:17;15.70;73.80
19039;DHT22;9652;49.014;12.052;2022-10-12T02:20:47;15.60;73.90
19039;DHT22;9652;49.014;12.052;2022-10-12T02:23:16;15.60;73.90
19039;DHT22;9652;49.014;12.052;2022-10-12T02:25:45;15.70;73.90
19039;DHT22;9652;49.014;12.052;2022-10-12T02:28:15;15.70;73.90
19039;DHT22;9652;49.014;12.052;2022-10-12T02:30:51;15.70;73.90
19039;DHT22;9652;49.014;12.052;2022-10-12T02:33:28;15.60;73.90
19039;DHT22;9652;49.014;12.052;2022-10-12T02:36:03;15.70;74.00
19039;DHT22;9652;49.014;12.052;2022-10-12T02:38:40;15.60;74.00
19039;DHT22;9652;49.014;12.052;2022-10-12T02:41:16;15.60;74.10
19039;DHT22;9652;49.014;12.052;2022-10-12T02:43:52;15.70;74.20
19039;DHT22;9652;49.014;12.052;2022-10-12T02:46:24;15.60;74.10
19039;DHT22;9652;49.014;12.052;2022-10-12T02:48:54;15.60;74.20
19039;DHT22;9652;49.014;12.052;2022-10-12T02:51:24;15.60;74.30
19039;DHT22;9652;49.014;12.052;2022-10-12T02:53:53;15.70;74.30
19039;DHT22;9652;49.014;12.052;2022-10-12T02:56:21;15.60;74.10
19039;DHT22;9652;49.014;12.052;2022-10-12T02:58:49;15.70;74.10
19039;DHT22;9652;49.014;12.052;2022-10-12T03:01:16;15.60;74.00
19039;DHT22;9652;49.014;12.052;2022-10-12T03:03:43;15.70;73.90
19039;DHT22;9652;49.014;12.052;2022-10-12T03:06:12;15.60;73.80
19039;DHT22;9652;49.014;12.052;2022-10-12T03:08:40;15.60;73.70
19039;DHT22;9652;49.014;12.052;2022-10-12T03:11:11;15.60;73.70
19039;DHT22;9652;49.014;12.052;2022-10-12T03:13:39;15.60;73.80
19039;DHT22;9652;49.014;12.052;2022-10-12T03:16:08;15.50;73.60
19039;DHT22;9652;49.014;12.052;2022-10-12T03:18:37;15.50;73.70
19039;DHT22;9652;49.014;12.052;2022-10-12T03:21:04;15.50;73.60
19039;DHT22;9652;49.014;12.052;2022-10-12T03:23:33;15.50;73.60
19039;DHT22;9652;49.014;12.052;2022-10-12T03:26:00;15.50;73.60
19039;DHT22;9652;49.014;12.052;2022-10-12T03:28:27;15.40;73.40
19039;DHT22;9652;49.014;12.052;2022-10-12T03:30:55;15.40;73.40
19039;DHT22;9652;49.014;12.052;2022-10-12T03:33:22;15.40;73.40
19039;DHT22;9652;49.014;12.052;2022-10-12T03:35:50;15.30;73.40
19039;DHT22;9652;49.014;12.052;2022-10-12T03:38:18;15.40;73.50
19039;DHT22;9652;49.014;12.052;2022-10-12T03:40:46;15.20;73.40
19039;DHT22;9652;49.014;12.052;2022-10-12T03:43:14;15.20;73.50
19039;DHT22;9652;49.014;12.052;2022-10-12T03:45:42;15.20;73.70
19039;DHT22;9652;49.014;12.052;2022-10-12T03:48:09;15.20;73.80
19039;DHT22;9652;49.014;12.052;2022-10-12T03:50:36;15.20;74.00
19039;DHT22;9652;49.014;12.052;2022-10-12T03:53:04;15.20;74.20
19039;DHT22;9652;49.014;12.052;2022-10-12T03:55:32;15.20;74.40
19039;DHT22;9652;49.014;12.052;2022-10-12T03:58:01;15.20;74.40
19039;DHT22;9652;49.014;12.052;2022-10-12T04:00:28;15.20;74.50
19039;DHT22;9652;49.014;12.052;2022-10-12T04:02:55;15.20;74.40
19039;DHT22;9652;49.014;12.052;2022-10-12T04:05:22;15.20;74.30
19039;DHT22;9652;49.014;12.052;2022-10-12T04:07:49;15.20;74.20
19039;DHT22;9652;49.014;12.052;2022-10-12T04:10:17;15.10;73.90
19039;DHT22;9652;49.014;12.052;2022-10-12T04:12:44;15.20;74.60
19039;DHT22;9652;49.014;12.052;2022-10-12T04:15:13;15.20;73.50
19039;DHT22;9652;49.014;12.052;2022-10-12T04:17:42;15.10;73.50
19039;DHT22;9652;49.014;12.052;2022-10-12T04:20:10;15.10;73.40
19039;DHT22;9652;49.014;12.052;2022-10-12T04:22:38;15.00;73.30
19039;DHT22;9652;49.014;12.052;2022-10-12T04:25:06;15.00;73.30
19039;DHT22;9652;49.014;12.052;2022-10-12T04:27:33;15.00;73.40
19039;DHT22;9652;49.014;12.052;2022-10-12T04:30:00;14.90;73.30
19039;DHT22;9652;49.014;12.052;2022-10-12T04:32:29;14.90;74.30
19039;DHT22;9652;49.014;12.052;2022-10-12T04:34:56;14.80;73.50
19039;DHT22;9652;49.014;12.052;2022-10-12T04:37:25;14.80;73.70
19039;DHT22;9652;49.014;12.052;2022-10-12T04:39:52;14.80;73.70
19039;DHT22;9652;49.014;12.052;2022-10-12T04:42:19;14.80;73.70
19039;DHT22;9652;49.014;12.052;2022-10-12T04:44:46;14.90;73.90
19039;DHT22;9652;49.014;12.052;2022-10-12T04:47:14;14.70;73.80
19039;DHT22;9652;49.014;12.052;2022-10-12T04:53:24;14.70;74.40
19039;DHT22;9652;49.014;12.052;2022-10-12T04:55:51;14.60;74.00
19039;DHT22;9652;49.014;12.052;2022-10-12T04:58:19;14.60;74.20
19039;DHT22;9652;49.014;12.052;2022-10-12T05:00:47;14.60;74.20
19039;DHT22;9652;49.014;12.052;2022-10-12T05:03:15;14.60;74.20
19039;DHT22;9652;49.014;12.052;2022-10-12T05:05:43;14.60;74.20
19039;DHT22;9652;49.014;12.052;2022-10-12T05:08:11;14.60;74.20
19039;DHT22;9652;49.014;12.052;2022-10-12T05:10:39;14.60;74.20
19039;DHT22;9652;49.014;12.052;2022-10-12T05:13:07;14.60;74.20
19039;DHT22;9652;49.014;12.052;2022-10-12T05:15:34;14.50;74.20
19039;DHT22;9652;49.014;12.052;2022-10-12T05:18:01;14.50;74.20
19039;DHT22;9652;49.014;12.052;2022-10-12T05:20:28;14.50;74.20
19039;DHT22;9652;49.014;12.052;2022-10-12T05:22:56;14.50;74.30
19039;DHT22;9652;49.014;12.052;2022-10-12T05:25:23;14.50;74.40
19039;DHT22;9652;49.014;12.052;2022-10-12T05:27:51;14.50;74.40
19039;DHT22;9652;49.014;12.052;2022-10-12T05:30:19;14.50;74.60
19039;DHT22;9652;49.014;12.052;2022-10-12T05:32:47;14.50;74.70
19039;DHT22;9652;49.014;12.052;2022-10-12T05:35:14;14.50;74.70
19039;DHT22;9652;49.014;12.052;2022-10-12T05:37:41;14.50;74.90
19039;DHT22;9652;49.014;12.052;2022-10-12T05:40:09;14.60;75.00
19039;DHT22;9652;49.014;12.052;2022-10-12T05:42:37;14.50;75.00
19039;DHT22;9652;49.014;12.052;2022-10-12T05:45:06;14.60;75.10
19039;DHT22;9652;49.014;12.052;2022-10-12T05:47:34;14.60;75.20
19039;DHT22;9652;49.014;12.052;2022-10-12T05:50:01;14.60;75.20
19039;DHT22;9652;49.014;12.052;2022-10-12T05:52:28;14.70;75.20
19039;DHT22;9652;49.014;12.052;2022-10-12T05:54:55;14.60;75.10
19039;DHT22;9652;49.014;12.052;2022-10-12T05:57:22;14.70;75.20
19039;DHT22;9652;49.014;12.052;2022-10-12T05:59:49;14.70;75.30
19039;DHT22;9652;49.014;12.052;2022-10-12T06:02:18;14.70;75.20
19039;DHT22;9652;49.014;12.052;2022-10-12T06:04:45;14.80;75.40
19039;DHT22;9652;49.014;12.052;2022-10-12T06:07:12;14.80;75.40
19039;DHT22;9652;49.014;12.052;2022-10-12T06:09:39;14.80;75.40
19039;DHT22;9652;49.014;12.052;2022-10-12T06:12:07;14.90;75.50
19039;DHT22;9652;49.014;12.052;2022-10-12T06:14:34;14.90;75.50
19039;DHT22;9652;49.014;12.052;2022-10-12T06:17:02;15.00;75.50
19039;DHT22;9652;49.014;12.052;2022-10-12T06:19:30;15.00;76.20
19039;DHT22;9652;49.014;12.052;2022-10-12T06:21:57;15.00;75.40
19039;DHT22;9652;49.014;12.052;2022-10-12T06:24:24;15.10;75.50
19039;DHT22;9652;49.014;12.052;2022-10-12T06:26:52;15.10;75.40
19039;DHT22;9652;49.014;12.052;2022-10-12T06:29:19;15.10;75.40
19039;DHT22;9652;49.014;12.052;2022-10-12T06:31:47;15.20;75.40
19039;DHT22;9652;49.014;12.052;2022-10-12T06:34:15;15.30;75.40
19039;DHT22;9652;49.014;12.052;2022-10-12T06:36:43;15.30;75.40
19039;DHT22;9652;49.014;12.052;2022-10-12T06:39:10;15.40;75.30
19039;DHT22;9652;49.014;12.052;2022-10-12T06:41:38;15.40;75.30
19039;DHT22;9652;49.014;12.052;2022-10-12T06:44:07;15.40;75.30
19039;DHT22;9652;49.014;12.052;2022-10-12T06:46:35;15.40;75.30
19039;DHT22;9652;49.014;12.052;2022-10-12T06:49:02;15.50;75.10
19039;DHT22;9652;49.014;12.052;2022-10-12T06:51:29;15.50;75.10
19039;DHT22;9652;49.014;12.052;2022-10-12T06:53:57;15.60;75.10
19039;DHT22;9652;49.014;12.052;2022-10-12T06:56:24;15.60;75.10
19039;DHT22;9652;49.014;12.052;2022-10-12T06:58:55;15.70;75.00
19039;DHT22;9652;49.014;12.052;2022-10-12T07:01:23;15.70;74.80
19039;DHT22;9652;49.014;12.052;2022-10-12T07:03:50;15.80;74.90
19039;DHT22;9652;49.014;12.052;2022-10-12T07:06:17;15.80;75.00
19039;DHT22;9652;49.014;12.052;2022-10-12T07:08:44;15.90;75.00
19039;DHT22;9652;49.014;12.052;2022-10-12T07:11:14;16.00;74.90
19039;DHT22;9652;49.014;12.052;2022-10-12T07:13:42;16.00;74.70
19039;DHT22;9652;49.014;12.052;2022-10-12T07:16:09;16.10;74.60
19039;DHT22;9652;49.014;12.052;2022-10-12T07:18:36;16.10;74.70
19039;DHT22;9652;49.014;12.052;2022-10-12T07:21:05;16.20;74.80
19039;DHT22;9652;49.014;12.052;2022-10-12T07:23:33;16.30;74.70
19039;DHT22;9652;49.014;12.052;2022-10-12T07:26:02;16.30;74.50
19039;DHT22;9652;49.014;12.052;2022-10-12T07:28:32;16.30;74.40
19039;DHT22;9652;49.014;12.052;2022-10-12T07:31:00;16.50;74.30
19039;DHT22;9652;49.014;12.052;2022-10-12T07:33:30;16.50;74.20
19039;DHT22;9652;49.014;12.052;2022-10-12T07:35:59;16.60;74.10
19039;DHT22;9652;49.014;12.052;2022-10-12T07:38:27;16.70;74.00
19039;DHT22;9652;49.014;12.052;2022-10-12T07:40:57;16.70;73.70
19039;DHT22;9652;49.014;12.052;2022-10-12T07:43:25;16.70;73.20
19039;DHT22;9652;49.014;12.052;2022-10-12T07:45:54;16.80;72.80
19039;DHT22;9652;49.014;12.052;2022-10-12T07:48:22;16.80;72.50
19039;DHT22;9652;49.014;12.052;2022-10-12T07:50:49;16.80;72.50
19039;DHT22;9652;49.014;12.052;2022-10-12T07:53:16;16.80;72.30
19039;DHT22;9652;49.014;12.052;2022-10-12T07:55:43;16.80;72.20
19039;DHT22;9652;49.014;12.052;2022-10-12T07:58:10;16.80;72.10
19039;DHT22;9652;49.014;12.052;2022-10-12T08:00:38;16.80;71.90
19039;DHT22;9652;49.014;12.052;2022-10-12T08:03:06;16.80;71.80
19039;DHT22;9652;49.014;12.052;2022-10-12T08:05:35;16.80;71.60
19039;DHT22;9652;49.014;12.052;2022-10-12T08:08:03;16.80;71.50
19039;DHT22;9652;49.014;12.052;2022-10-12T08:10:33;16.80;71.50
19039;DHT22;9652;49.014;12.052;2022-10-12T08:13:01;16.70;71.50
19039;DHT22;9652;49.014;12.052;2022-10-12T08:15:28;16.80;71.60
19039;DHT22;9652;49.014;12.052;2022-10-12T08:17:56;16.70;71.70
19039;DHT22;9652;49.014;12.052;2022-10-12T08:20:24;16.80;71.80
19039;DHT22;9652;49.014;12.052;2022-10-12T08:22:53;16.80;71.80
19039;DHT22;9652;49.014;12.052;2022-10-12T08:25:20;16.80;71.60
19039;DHT22;9652;49.014;12.052;2022-10-12T08:27:47;16.80;71.60
19039;DHT22;9652;49.014;12.052;2022-10-12T08:30:14;16.80;71.30
19039;DHT22;9652;49.014;12.052;2022-10-12T08:32:41;16.80;71.30
19039;DHT22;9652;49.014;12.052;2022-10-12T08:35:08;16.90;71.40
19039;DHT22;9652;49.014;12.052;2022-10-12T08:37:37;16.90;71.40
19039;DHT22;9652;49.014;12.052;2022-10-12T08:40:05;16.90;72.30
19039;DHT22;9652;49.014;12.052;2022-10-12T08:42:39;16.90;71.60
19039;DHT22;9652;49.014;12.052;2022-10-12T08:45:29;17.00;71.60
19039;DHT22;9652;49.014;12.052;2022-10-12T08:48:07;17.00;72.10
19039;DHT22;9652;49.014;12.052;2022-10-12T08:50:41;17.10;71.60
19039;DHT22;9652;49.014;12.052;2022-10-12T08:53:18;17.20;71.60
19039;DHT22;9652;49.014;12.052;2022-10-12T08:55:50;17.20;71.60
19039;DHT22;9652;49.014;12.052;2022-10-12T08:58:19;17.30;71.70
19039;DHT22;9652;49.014;12.052;2022-10-12T09:00:52;17.50;71.60
19039;DHT22;9652;49.014;12.052;2022-10-12T09:03:32;17.50;71.60
19039;DHT22;9652;49.014;12.052;2022-10-12T09:06:13;17.60;71.20
19039;DHT22;9652;49.014;12.052;2022-10-12T09:08:59;17.60;71.10
19039;DHT22;9652;49.014;12.052;2022-10-12T09:11:44;17.70;70.80
19039;DHT22;9652;49.014;12.052;2022-10-12T09:14:26;17.80;70.70
19039;DHT22;9652;49.014;12.052;2022-10-12T09:16:59;17.90;70.70
19039;DHT22;9652;49.014;12.052;2022-10-12T09:19:34;18.00;70.60
19039;DHT22;9652;49.014;12.052;2022-10-12T09:22:04;18.00;70.50
19039;DHT22;9652;49.014;12.052;2022-10-12T09:24:37;18.10;70.60
19039;DHT22;9652;49.014;12.052;2022-10-12T09:27:12;18.20;70.40
19039;DHT22;9652;49.014;12.052;2022-10-12T09:29:44;18.30;70.00
19039;DHT22;9652;49.014;12.052;2022-10-12T09:32:39;18.40;70.00
19039;DHT22;9652;49.014;12.052;2022-10-12T09:35:17;18.40;68.90
19039;DHT22;9652;49.014;12.052;2022-10-12T09:37:47;18.50;69.80
19039;DHT22;9652;49.014;12.052;2022-10-12T09:40:20;18.60;69.60
19039;DHT22;9652;49.014;12.052;2022-10-12T09:42:51;18.70;69.40
19039;DHT22;9652;49.014;12.052;2022-10-12T09:45:21;18.70;69.40
19039;DHT22;9652;49.014;12.052;2022-10-12T09:48:11;18.80;69.30
19039;DHT22;9652;49.014;12.052;2022-10-12T09:50:46;18.90;68.20
19039;DHT22;9652;49.014;12.052;2022-10-12T09:53:29;19.00;69.00
19039;DHT22;9652;49.014;12.052;2022-10-12T09:56:04;19.00;68.20
19039;DHT22;9652;49.014;12.052;2022-10-12T09:58:40;19.10;68.40
19039;DHT22;9652;49.014;12.052;2022-10-12T10:01:22;19.20;68.30
19039;DHT22;9652;49.014;12.052;2022-10-12T10:04:07;19.20;67.70
19039;DHT22;9652;49.014;12.052;2022-10-12T10:06:39;19.40;67.20
19039;DHT22;9652;49.014;12.052;2022-10-12T10:09:25;19.40;68.00
19039;DHT22;9652;49.014;12.052;2022-10-12T10:11:57;19.40;67.00
19039;DHT22;9652;49.014;12.052;2022-10-12T10:14:36;19.50;67.60
19039;DHT22;9652;49.014;12.052;2022-10-12T10:17:04;19.60;67.80
19039;DHT22;9652;49.014;12.052;2022-10-12T10:19:31;19.60;67.60
19039;DHT22;9652;49.014;12.052;2022-10-12T10:22:04;19.70;67.40
19039;DHT22;9652;49.014;12.052;2022-10-12T10:24:32;19.70;66.60
19039;DHT22;9652;49.014;12.052;2022-10-12T10:27:02;19.80;67.00
19039;DHT22;9652;49.014;12.052;2022-10-12T10:29:34;19.80;66.60
19039;DHT22;9652;49.014;12.052;2022-10-12T10:32:12;19.90;66.60
19039;DHT22;9652;49.014;12.052;2022-10-12T10:35:00;19.90;65.90
19039;DHT22;9652;49.014;12.052;2022-10-12T10:37:30;20.00;65.50
19039;DHT22;9652;49.014;12.052;2022-10-12T10:39:58;20.00;66.20
19039;DHT22;9652;49.014;12.052;2022-10-12T10:42:29;20.00;66.10
19039;DHT22;9652;49.014;12.052;2022-10-12T10:44:59;20.10;65.90
19039;DHT22;9652;49.014;12.052;2022-10-12T10:47:31;20.10;66.00
19039;DHT22;9652;49.014;12.052;2022-10-12T10:50:01;20.10;66.10
19039;DHT22;9652;49.014;12.052;2022-10-12T10:52:34;20.20;66.30
19039;DHT22;9652;49.014;12.052;2022-10-12T10:55:18;20.20;66.30
19039;DHT22;9652;49.014;12.052;2022-10-12T10:58:00;20.30;65.30
19039;DHT22;9652;49.014;12.052;2022-10-12T11:00:31;20.30;65.30
19039;DHT22;9652;49.014;12.052;2022-10-12T11:03:04;20.40;65.80
19039;DHT22;9652;49.014;12.052;2022-10-12T11:05:38;20.40;65.40
19039;DHT22;9652;49.014;12.052;2022-10-12T11:08:14;20.50;65.50
19039;DHT22;9652;49.014;12.052;2022-10-12T11:10:49;20.50;65.30
19039;DHT22;9652;49.014;12.052;2022-10-12T11:13:24;20.60;65.40
19039;DHT22;9652;49.014;12.052;2022-10-12T11:15:57;20.60;65.20
19039;DHT22;9652;49.014;12.052;2022-10-12T11:18:33;20.60;65.20
19039;DHT22;9652;49.014;12.052;2022-10-12T11:21:10;20.60;64.80
19039;DHT22;9652;49.014;12.052;2022-10-12T11:23:45;20.60;64.80
19039;DHT22;9652;49.014;12.052;2022-10-12T11:26:21;20.60;64.60
19039;DHT22;9652;49.014;12.052;2022-10-12T11:28:56;20.60;64.60
19039;DHT22;9652;49.014;12.052;2022-10-12T11:31:29;20.60;64.70
19039;DHT22;9652;49.014;12.052;2022-10-12T11:33:59;20.60;65.00
19039;DHT22;9652;49.014;12.052;2022-10-12T11:36:32;20.60;65.00
19039;DHT22;9652;49.014;12.052;2022-10-12T11:39:07;20.60;64.80
19039;DHT22;9652;49.014;12.052;2022-10-12T11:41:44;20.60;64.70
19039;DHT22;9652;49.014;12.052;2022-10-12T11:44:19;20.50;64.60
19039;DHT22;9652;49.014;12.052;2022-10-12T11:46:54;20.60;64.30
19039;DHT22;9652;49.014;12.052;2022-10-12T11:49:27;20.50;64.30
19039;DHT22;9652;49.014;12.052;2022-10-12T11:52:00;20.50;64.60
19039;DHT22;9652;49.014;12.052;2022-10-12T11:54:35;20.60;64.60
19039;DHT22;9652;49.014;12.052;2022-10-12T11:57:12;20.60;64.40
19039;DHT22;9652;49.014;12.052;2022-10-12T11:59:46;20.60;64.40
19039;DHT22;9652;49.014;12.052;2022-10-12T12:02:21;20.60;64.30
19039;DHT22;9652;49.014;12.052;2022-10-12T12:04:52;20.60;64.60
19039;DHT22;9652;49.014;12.052;2022-10-12T12:07:44;20.60;64.60
19039;DHT22;9652;49.014;12.052;2022-10-12T12:10:42;20.70;63.60
19039;DHT22;9652;49.014;12.052;2022-10-12T12:13:28;20.70;63.40
19039;DHT22;9652;49.014;12.052;2022-10-12T12:16:30;20.70;64.00
19039;DHT22;9652;49.014;12.052;2022-10-12T12:19:35;20.70;62.90
19039;DHT22;9652;49.014;12.052;2022-10-12T12:22:14;20.70;62.80
19039;DHT22;9652;49.014;12.052;2022-10-12T12:25:22;20.70;63.30
19039;DHT22;9652;49.014;12.052;2022-10-12T12:27:57;20.70;62.90
19039;DHT22;9652;49.014;12.052;2022-10-12T12:30:35;20.80;63.60
19039;DHT22;9652;49.014;12.052;2022-10-12T12:33:25;20.70;63.20
19039;DHT22;9652;49.014;12.052;2022-10-12T12:35:57;20.70;63.00
19039;DHT22;9652;49.014;12.052;2022-10-12T12:38:28;20.70;63.30
19039;DHT22;9652;49.014;12.052;2022-10-12T12:41:06;20.70;63.90
19039;DHT22;9652;49.014;12.052;2022-10-12T12:44:01;20.70;62.80
19039;DHT22;9652;49.014;12.052;2022-10-12T12:49:50;20.70;62.20
19039;DHT22;9652;49.014;12.052;2022-10-12T12:52:23;20.60;62.70
19039;DHT22;9652;49.014;12.052;2022-10-12T12:55:31;20.60;62.90
19039;DHT22;9652;49.014;12.052;2022-10-12T12:58:48;20.50;62.00
19039;DHT22;9652;49.014;12.052;2022-10-12T13:01:47;20.50;62.10
19039;DHT22;9652;49.014;12.052;2022-10-12T13:04:45;20.40;61.60
19039;DHT22;9652;49.014;12.052;2022-10-12T13:10:38;20.30;61.50
19039;DHT22;9652;49.014;12.052;2022-10-12T13:13:33;20.20;62.20
19039;DHT22;9652;49.014;12.052;2022-10-12T13:16:18;20.20;62.10
19039;DHT22;9652;49.014;12.052;2022-10-12T13:18:59;20.20;62.50
19039;DHT22;9652;49.014;12.052;2022-10-12T13:21:35;20.20;62.80
19039;DHT22;9652;49.014;12.052;2022-10-12T13:24:13;20.20;62.70
19039;DHT22;9652;49.014;12.052;2022-10-12T13:26:45;20.20;62.40
19039;DHT22;9652;49.014;12.052;2022-10-12T13:29:18;20.20;62.60
19039;DHT22;9652;49.014;12.052;2022-10-12T13:31:52;20.20;62.20
19039;DHT22;9652;49.014;12.052;2022-10-12T13:34:25;20.20;62.20
19039;DHT22;9652;49.014;12.052;2022-10-12T13:37:00;20.20;62.20
19039;DHT22;9652;49.014;12.052;2022-10-12T13:39:37;20.10;62.00
19039;DHT22;9652;49.014;12.052;2022-10-12T13:42:05;20.10;62.00
19039;DHT22;9652;49.014;12.052;2022-10-12T13:44:34;20.10;62.50
19039;DHT22;9652;49.014;12.052;2022-10-12T13:47:20;20.10;62.20
19039;DHT22;9652;49.014;12.052;2022-10-12T13:49:49;20.20;61.40
19039;DHT22;9652;49.014;12.052;2022-10-12T13:52:20;20.20;62.20
19039;DHT22;9652;49.014;12.052;2022-10-12T13:54:51;20.20;61.90
19039;DHT22;9652;49.014;12.052;2022-10-12T13:57:21;20.20;62.10
19039;DHT22;9652;49.014;12.052;2022-10-12T13:59:56;20.20;61.90
19039;DHT22;9652;49.014;12.052;2022-10-12T14:02:28;20.20;61.90
19039;DHT22;9652;49.014;12.052;2022-10-12T14:04:58;20.20;62.10
19039;DHT22;9652;49.014;12.052;2022-10-12T14:07:31;20.30;62.00
19039;DHT22;9652;49.014;12.052;2022-10-12T14:10:03;20.20;62.10
19039;DHT22;9652;49.014;12.052;2022-10-12T14:12:34;20.20;62.40
19039;DHT22;9652;49.014;12.052;2022-10-12T14:15:03;20.20;62.40
19039;DHT22;9652;49.014;12.052;2022-10-12T14:17:31;20.20;62.40
19039;DHT22;9652;49.014;12.052;2022-10-12T14:20:15;20.30;62.60
19039;DHT22;9652;49.014;12.052;2022-10-12T14:22:48;20.30;61.90
19039;DHT22;9652;49.014;12.052;2022-10-12T14:25:17;20.40;62.40
19039;DHT22;9652;49.014;12.052;2022-10-12T14:27:52;20.40;62.20
19039;DHT22;9652;49.014;12.052;2022-10-12T14:30:23;20.50;61.40
19039;DHT22;9652;49.014;12.052;2022-10-12T14:33:05;20.50;61.60
19039;DHT22;9652;49.014;12.052;2022-10-12T14:35:36;20.50;61.60
19039;DHT22;9652;49.014;12.052;2022-10-12T14:38:33;20.60;61.80
19039;DHT22;9652;49.014;12.052;2022-10-12T14:41:32;20.60;61.30
19039;DHT22;9652;49.014;12.052;2022-10-12T14:44:05;20.70;61.30
19039;DHT22;9652;49.014;12.052;2022-10-12T14:46:37;20.70;61.70
19039;DHT22;9652;49.014;12.052;2022-10-12T14:49:12;20.70;61.70
19039;DHT22;9652;49.014;12.052;2022-10-12T14:51:43;20.70;61.60
19039;DHT22;9652;49.014;12.052;2022-10-12T14:54:12;20.80;61.70
19039;DHT22;9652;49.014;12.052;2022-10-12T14:56:39;20.80;61.50
19039;DHT22;9652;49.014;12.052;2022-10-12T14:59:06;20.80;61.50
19039;DHT22;9652;49.014;12.052;2022-10-12T15:01:33;20.90;61.50
19039;DHT22;9652;49.014;12.052;2022-10-12T15:04:00;20.90;61.40
19039;DHT22;9652;49.014;12.052;2022-10-12T15:06:27;20.90;61.50
19039;DHT22;9652;49.014;12.052;2022-10-12T15:08:54;20.90;61.50
19039;DHT22;9652;49.014;12.052;2022-10-12T15:11:23;20.90;61.40
19039;DHT22;9652;49.014;12.052;2022-10-12T15:13:50;20.90;61.30
19039;DHT22;9652;49.014;12.052;2022-10-12T15:16:19;20.90;61.20
19039;DHT22;9652;49.014;12.052;2022-10-12T15:18:48;20.90;61.10
19039;DHT22;9652;49.014;12.052;2022-10-12T15:21:16;20.90;61.10
19039;DHT22;9652;49.014;12.052;2022-10-12T15:23:44;20.90;61.10
19039;DHT22;9652;49.014;12.052;2022-10-12T15:26:13;20.80;60.90
19039;DHT22;9652;49.014;12.052;2022-10-12T15:28:43;20.80;60.90
19039;DHT22;9652;49.014;12.052;2022-10-12T15:31:12;20.80;60.70
19039;DHT22;9652;49.014;12.052;2022-10-12T15:33:42;20.70;60.70
19039;DHT22;9652;49.014;12.052;2022-10-12T15:36:09;20.70;60.80
19039;DHT22;9652;49.014;12.052;2022-10-12T15:38:37;20.70;60.90
19039;DHT22;9652;49.014;12.052;2022-10-12T15:41:04;20.70;61.00
19039;DHT22;9652;49.014;12.052;2022-10-12T15:43:36;20.70;61.10
19039;DHT22;9652;49.014;12.052;2022-10-12T15:46:04;20.60;60.90
19039;DHT22;9652;49.014;12.052;2022-10-12T15:48:34;20.60;60.90
19039;DHT22;9652;49.014;12.052;2022-10-12T15:51:07;20.50;60.90
19039;DHT22;9652;49.014;12.052;2022-10-12T15:53:41;20.40;60.70
19039;DHT22;9652;49.014;12.052;2022-10-12T15:56:11;20.50;60.90
19039;DHT22;9652;49.014;12.052;2022-10-12T15:58:40;20.40;60.80
19039;DHT22;9652;49.014;12.052;2022-10-12T16:01:10;20.40;61.70
19039;DHT22;9652;49.014;12.052;2022-10-12T16:03:38;20.30;60.70
19039;DHT22;9652;49.014;12.052;2022-10-12T16:06:06;20.20;60.80
19039;DHT22;9652;49.014;12.052;2022-10-12T16:08:34;20.10;61.60
19039;DHT22;9652;49.014;12.052;2022-10-12T16:11:01;20.10;61.00
19039;DHT22;9652;49.014;12.052;2022-10-12T16:13:29;19.90;61.00
19039;DHT22;9652;49.014;12.052;2022-10-12T16:15:56;19.80;61.10